Home > Products > Valid Products > TAF

000
FTUS44 KOUN 120520
TAFSPS
TAF
KSPS 120520Z 1206/1306 01006KT P6SM FEW200
     FM121600 03012KT P6SM SCT200=



000
FTUS44 KOUN 120520
TAFSPS
TAF
KSPS 120520Z 1206/1306 01006KT P6SM FEW200
     FM121600 03012KT P6SM SCT200=



000
FTUS44 KOUN 120520
TAFSPS
TAF
KSPS 120520Z 1206/1306 01006KT P6SM FEW200
     FM121600 03012KT P6SM SCT200=



000
FTUS44 KOUN 120520
TAFHBR
TAF
KHBR 120520Z 1206/1306 15007KT P6SM SCT200
     FM120900 32007KT P6SM SCT200
     FM121500 03014G21KT P6SM SCT200
     FM130000 06010KT P6SM SCT200=



000
FTUS44 KOUN 120520
TAFOKC
TAF
KOKC 120520Z 1206/1306 36005KT P6SM FEW200
     FM121400 36012KT P6SM SCT200
     FM121600 01014G21KT P6SM SCT200
     FM130000 03011KT P6SM SCT150=



000
FTUS44 KOUN 120520
TAFGAG
TAF
KGAG 120520Z 1206/1306 30005KT P6SM SCT200
     FM121500 04010KT P6SM SCT150=



000
FTUS44 KOUN 120520
TAFLAW
TAF
KLAW 120520Z 1206/1306 03005KT P6SM FEW200
     FM121500 03013G20KT P6SM SCT200
     FM130000 03010KT P6SM SCT200=



000
FTUS44 KOUN 120520
TAFPNC
TAF
KPNC 120520Z 1206/1306 36005KT P6SM FEW200
     FM121400 36010KT P6SM BKN200
     FM121500 01013G20KT P6SM BKN150
     FM130000 04011KT P6SM BKN150=



000
FTUS44 KOUN 120520
TAFWWR
TAF
KWWR 120520Z 1206/1306 30005KT P6SM SCT200
     FM121500 04010KT P6SM SCT150=



000
FTUS44 KOUN 120520
TAFOKC
TAF
KOKC 120520Z 1206/1306 36005KT P6SM FEW200
     FM121400 36012KT P6SM SCT200
     FM121600 01014G21KT P6SM SCT200
     FM130000 03011KT P6SM SCT150=



000
FTUS44 KOUN 120520
TAFPNC
TAF
KPNC 120520Z 1206/1306 36005KT P6SM FEW200
     FM121400 36010KT P6SM BKN200
     FM121500 01013G20KT P6SM BKN150
     FM130000 04011KT P6SM BKN150=



000
FTUS44 KOUN 120520
TAFOUN
TAF
KOUN 120520Z 1206/1306 35002KT P6SM FEW200
     FM121500 36012KT P6SM SCT200
     FM121700 36014G21KT P6SM SCT200
     FM130000 03011KT P6SM SCT150=



000
FTUS44 KOUN 120520
TAFHBR
TAF
KHBR 120520Z 1206/1306 15007KT P6SM SCT200
     FM120900 32007KT P6SM SCT200
     FM121500 03014G21KT P6SM SCT200
     FM130000 06010KT P6SM SCT200=



000
FTUS44 KOUN 120520
TAFLAW
TAF
KLAW 120520Z 1206/1306 03005KT P6SM FEW200
     FM121500 03013G20KT P6SM SCT200
     FM130000 03010KT P6SM SCT200=



000
FTUS44 KOUN 120520
TAFLAW
TAF
KLAW 120520Z 1206/1306 03005KT P6SM FEW200
     FM121500 03013G20KT P6SM SCT200
     FM130000 03010KT P6SM SCT200=



000
FTUS44 KOUN 120520
TAFWWR
TAF
KWWR 120520Z 1206/1306 30005KT P6SM SCT200
     FM121500 04010KT P6SM SCT150=



000
FTUS44 KOUN 120520
TAFWWR
TAF
KWWR 120520Z 1206/1306 30005KT P6SM SCT200
     FM121500 04010KT P6SM SCT150=



000
FTUS44 KOUN 120520
TAFGAG
TAF
KGAG 120520Z 1206/1306 30005KT P6SM SCT200
     FM121500 04010KT P6SM SCT150=



000
FTUS44 KOUN 120520
TAFOUN
TAF
KOUN 120520Z 1206/1306 35002KT P6SM FEW200
     FM121500 36012KT P6SM SCT200
     FM121700 36014G21KT P6SM SCT200
     FM130000 03011KT P6SM SCT150=



000
FTUS44 KOUN 120520
TAFPNC
TAF
KPNC 120520Z 1206/1306 36005KT P6SM FEW200
     FM121400 36010KT P6SM BKN200
     FM121500 01013G20KT P6SM BKN150
     FM130000 04011KT P6SM BKN150=



000
FTUS44 KOUN 120520
TAFGAG
TAF
KGAG 120520Z 1206/1306 30005KT P6SM SCT200
     FM121500 04010KT P6SM SCT150=



000
FTUS44 KOUN 112324
TAFOKC
TAF
KOKC 112324Z 1200/1224 04004KT P6SM SCT200
     FM121400 36012KT P6SM SCT200
     FM121600 36014G21KT P6SM SCT200=



000
FTUS44 KOUN 112324
TAFGAG
TAF
KGAG 112324Z 1200/1224 18005KT P6SM SCT200
     FM120900 31007KT P6SM SCT200
     FM121500 03011KT P6SM SCT200=



000
FTUS44 KOUN 112324
TAFLAW
TAF
KLAW 112324Z 1200/1224 03005KT P6SM SCT200
     FM121500 02013G20KT P6SM SCT200=



000
FTUS44 KOUN 112324
TAFPNC
TAF
KPNC 112324Z 1200/1224 12003KT P6SM SCT200
     FM121100 35009KT P6SM BKN200
     FM121500 36013G20KT P6SM BKN200=



000
FTUS44 KOUN 112324
TAFHBR
TAF
KHBR 112324Z 1200/1224 15005KT P6SM SCT200
     FM120900 32007KT P6SM SCT200
     FM121500 02014G21KT P6SM SCT200=



000
FTUS44 KOUN 112324
TAFPNC
TAF
KPNC 112324Z 1200/1224 12003KT P6SM SCT200
     FM121100 35009KT P6SM BKN200
     FM121500 36013G20KT P6SM BKN200=



000
FTUS44 KOUN 112324
TAFOKC
TAF
KOKC 112324Z 1200/1224 04004KT P6SM SCT200
     FM121400 36012KT P6SM SCT200
     FM121600 36014G21KT P6SM SCT200=



000
FTUS44 KOUN 112324
TAFPNC
TAF
KPNC 112324Z 1200/1224 12003KT P6SM SCT200
     FM121100 35009KT P6SM BKN200
     FM121500 36013G20KT P6SM BKN200=



000
FTUS44 KOUN 112324
TAFHBR
TAF
KHBR 112324Z 1200/1224 15005KT P6SM SCT200
     FM120900 32007KT P6SM SCT200
     FM121500 02014G21KT P6SM SCT200=



000
FTUS44 KOUN 112324
TAFOUN
TAF
KOUN 112324Z 1200/1224 03002KT P6SM SCT200
     FM121500 36012KT P6SM SCT200
     FM121700 36014G21KT P6SM SCT200=



000
FTUS44 KOUN 112324
TAFWWR
TAF
KWWR 112324Z 1200/1224 18004KT P6SM SCT200
     FM120900 31007KT P6SM SCT200
     FM121500 03011KT P6SM SCT200=



000
FTUS44 KOUN 112324
TAFLAW
TAF
KLAW 112324Z 1200/1224 03005KT P6SM SCT200
     FM121500 02013G20KT P6SM SCT200=



000
FTUS44 KOUN 112324
TAFWWR
TAF
KWWR 112324Z 1200/1224 18004KT P6SM SCT200
     FM120900 31007KT P6SM SCT200
     FM121500 03011KT P6SM SCT200=



000
FTUS44 KOUN 112324
TAFSPS
TAF
KSPS 112324Z 1200/1224 04006KT P6SM SCT200
     FM121600 02012KT P6SM SCT200=



000
FTUS44 KOUN 112324
TAFSPS
TAF
KSPS 112324Z 1200/1224 04006KT P6SM SCT200
     FM121600 02012KT P6SM SCT200=



000
FTUS44 KOUN 112324
TAFGAG
TAF
KGAG 112324Z 1200/1224 18005KT P6SM SCT200
     FM120900 31007KT P6SM SCT200
     FM121500 03011KT P6SM SCT200=



000
FTUS44 KOUN 112324
TAFSPS
TAF
KSPS 112324Z 1200/1224 04006KT P6SM SCT200
     FM121600 02012KT P6SM SCT200=



000
FTUS44 KOUN 112324
TAFGAG
TAF
KGAG 112324Z 1200/1224 18005KT P6SM SCT200
     FM120900 31007KT P6SM SCT200
     FM121500 03011KT P6SM SCT200=



000
FTUS44 KOUN 112324
TAFOUN
TAF
KOUN 112324Z 1200/1224 03002KT P6SM SCT200
     FM121500 36012KT P6SM SCT200
     FM121700 36014G21KT P6SM SCT200=



000
FTUS44 KOUN 112324
TAFHBR
TAF
KHBR 112324Z 1200/1224 15005KT P6SM SCT200
     FM120900 32007KT P6SM SCT200
     FM121500 02014G21KT P6SM SCT200=



000
FTUS44 KOUN 112324
TAFOUN
TAF
KOUN 112324Z 1200/1224 03002KT P6SM SCT200
     FM121500 36012KT P6SM SCT200
     FM121700 36014G21KT P6SM SCT200=



000
FTUS44 KOUN 112324
TAFWWR
TAF
KWWR 112324Z 1200/1224 18004KT P6SM SCT200
     FM120900 31007KT P6SM SCT200
     FM121500 03011KT P6SM SCT200=



000
FTUS44 KOUN 112324
TAFLAW
TAF
KLAW 112324Z 1200/1224 03005KT P6SM SCT200
     FM121500 02013G20KT P6SM SCT200=



000
FTUS44 KOUN 112324
TAFOKC
TAF
KOKC 112324Z 1200/1224 04004KT P6SM SCT200
     FM121400 36012KT P6SM SCT200
     FM121600 36014G21KT P6SM SCT200=



000
FTUS44 KOUN 112112 AAA
TAFOKC
TAF AMD
KOKC 112112Z 1121/1218 04005KT P6SM SCT250
     FM121400 34012KT P6SM SCT250=



000
FTUS44 KOUN 111740
TAFHBR
TAF
KHBR 111740Z 1118/1218 05011KT P6SM FEW250
     FM112300 VRB05KT P6SM SKC
     FM120900 32007KT P6SM SCT250=



000
FTUS44 KOUN 111740
TAFOUN
TAF
KOUN 111740Z 1118/1218 01010KT P6SM FEW250
     FM120000 VRB03KT P6SM SKC
     FM121500 34014KT P6SM SCT250=



000
FTUS44 KOUN 111740
TAFLAW
TAF
KLAW 111740Z 1118/1218 04012KT P6SM SCT250
     FM112300 VRB04KT P6SM SKC
     FM121200 36010KT P6SM SKC=



000
FTUS44 KOUN 111740
TAFOKC
TAF
KOKC 111740Z 1118/1218 36012KT P6SM FEW250
     FM120000 VRB03KT P6SM SKC
     FM121400 34012KT P6SM SCT250=



000
FTUS44 KOUN 111740
TAFGAG
TAF
KGAG 111740Z 1118/1218 03005KT P6SM SCT250
     FM120100 19006KT P6SM SCT250
     FM120900 30008KT P6SM SCT250=



000
FTUS44 KOUN 111740
TAFWWR
TAF
KWWR 111740Z 1118/1218 03005KT P6SM SCT250
     FM120100 19006KT P6SM SCT250
     FM120900 30008KT P6SM SCT250=



000
FTUS44 KOUN 111740
TAFOKC
TAF
KOKC 111740Z 1118/1218 36012KT P6SM FEW250
     FM120000 VRB03KT P6SM SKC
     FM121400 34012KT P6SM SCT250=



000
FTUS44 KOUN 111740
TAFHBR
TAF
KHBR 111740Z 1118/1218 05011KT P6SM FEW250
     FM112300 VRB05KT P6SM SKC
     FM120900 32007KT P6SM SCT250=



000
FTUS44 KOUN 111740
TAFLAW
TAF
KLAW 111740Z 1118/1218 04012KT P6SM SCT250
     FM112300 VRB04KT P6SM SKC
     FM121200 36010KT P6SM SKC=



000
FTUS44 KOUN 111740
TAFWWR
TAF
KWWR 111740Z 1118/1218 03005KT P6SM SCT250
     FM120100 19006KT P6SM SCT250
     FM120900 30008KT P6SM SCT250=



000
FTUS44 KOUN 111740
TAFPNC
TAF
KPNC 111740Z 1118/1218 05010KT P6SM BKN250
     FM112000 VRB04KT P6SM SCT250
     FM121400 36014KT P6SM BKN250=



000
FTUS44 KOUN 111740
TAFGAG
TAF
KGAG 111740Z 1118/1218 03005KT P6SM SCT250
     FM120100 19006KT P6SM SCT250
     FM120900 30008KT P6SM SCT250=



000
FTUS44 KOUN 111740
TAFOUN
TAF
KOUN 111740Z 1118/1218 01010KT P6SM FEW250
     FM120000 VRB03KT P6SM SKC
     FM121500 34014KT P6SM SCT250=



000
FTUS44 KOUN 111740
TAFSPS
TAF
KSPS 111740Z 1118/1218 04011KT P6SM FEW250
     FM120000 VRB04KT P6SM SKC
     FM121200 31007KT P6SM FEW250=



000
FTUS44 KOUN 111740
TAFLAW
TAF
KLAW 111740Z 1118/1218 04012KT P6SM SCT250
     FM112300 VRB04KT P6SM SKC
     FM121200 36010KT P6SM SKC=



000
FTUS44 KOUN 111740
TAFSPS
TAF
KSPS 111740Z 1118/1218 04011KT P6SM FEW250
     FM120000 VRB04KT P6SM SKC
     FM121200 31007KT P6SM FEW250=



000
FTUS44 KOUN 111740
TAFHBR
TAF
KHBR 111740Z 1118/1218 05011KT P6SM FEW250
     FM112300 VRB05KT P6SM SKC
     FM120900 32007KT P6SM SCT250=



000
FTUS44 KOUN 111740
TAFWWR
TAF
KWWR 111740Z 1118/1218 03005KT P6SM SCT250
     FM120100 19006KT P6SM SCT250
     FM120900 30008KT P6SM SCT250=



000
FTUS44 KOUN 111740
TAFOKC
TAF
KOKC 111740Z 1118/1218 36012KT P6SM FEW250
     FM120000 VRB03KT P6SM SKC
     FM121400 34012KT P6SM SCT250=



000
FTUS44 KOUN 111740
TAFOUN
TAF
KOUN 111740Z 1118/1218 01010KT P6SM FEW250
     FM120000 VRB03KT P6SM SKC
     FM121500 34014KT P6SM SCT250=



000
FTUS44 KOUN 111740
TAFPNC
TAF
KPNC 111740Z 1118/1218 05010KT P6SM BKN250
     FM112000 VRB04KT P6SM SCT250
     FM121400 36014KT P6SM BKN250=



000
FTUS44 KOUN 111740
TAFGAG
TAF
KGAG 111740Z 1118/1218 03005KT P6SM SCT250
     FM120100 19006KT P6SM SCT250
     FM120900 30008KT P6SM SCT250=



000
FTUS44 KOUN 111740
TAFSPS
TAF
KSPS 111740Z 1118/1218 04011KT P6SM FEW250
     FM120000 VRB04KT P6SM SKC
     FM121200 31007KT P6SM FEW250=



000
FTUS44 KOUN 111740
TAFPNC
TAF
KPNC 111740Z 1118/1218 05010KT P6SM BKN250
     FM112000 VRB04KT P6SM SCT250
     FM121400 36014KT P6SM BKN250=



000
FTUS44 KOUN 111124
TAFSPS
TAF
KSPS 111124Z 1112/1212 36011KT P6SM FEW250
     FM120000 VRB04KT P6SM SKC=



000
FTUS44 KOUN 111124
TAFLAW
TAF
KLAW 111124Z 1112/1212 01012KT P6SM SCT250
     FM112300 VRB04KT P6SM SKC=



000
FTUS44 KOUN 111124
TAFOKC
TAF
KOKC 111124Z 1112/1212 33009KT P6SM SCT250
     FM111400 36012KT P6SM FEW250
     FM120000 VRB03KT P6SM SKC=



000
FTUS44 KOUN 111124
TAFPNC
TAF
KPNC 111124Z 1112/1212 35005KT P6SM SCT250
     FM111400 01010KT P6SM FEW250
     FM112000 VRB04KT P6SM SKC=



000
FTUS44 KOUN 111124
TAFHBR
TAF
KHBR 111124Z 1112/1212 36011KT P6SM FEW250
     FM112300 VRB05KT P6SM SKC=



000
FTUS44 KOUN 111124
TAFGAG
TAF
KGAG 111124Z 1112/1212 36009KT P6SM SCT250
     FM111800 VRB05KT P6SM SKC
     FM120900 30008KT P6SM SCT250=



000
FTUS44 KOUN 111124
TAFWWR
TAF
KWWR 111124Z 1112/1212 36009KT P6SM SCT250
     FM111800 VRB05KT P6SM SKC
     FM120900 30008KT P6SM SCT250=



000
FTUS44 KOUN 111124
TAFOUN
TAF
KOUN 111124Z 1112/1212 32008KT P6SM SCT250
     FM111400 01010KT P6SM FEW250
     FM120000 VRB03KT P6SM SKC=



000
FTUS44 KOUN 110520
TAFGAG
TAF
KGAG 110520Z 1106/1206 VRB04KT P6SM BKN250
     FM111200 36009KT P6SM SCT250
     FM111800 VRB05KT P6SM SKC=



000
FTUS44 KOUN 110520
TAFGAG
TAF
KGAG 110520Z 1106/1206 VRB04KT P6SM BKN250
     FM111200 36009KT P6SM SCT250
     FM111800 VRB05KT P6SM SKC=



000
FTUS44 KOUN 110520
TAFOUN
TAF
KOUN 110520Z 1106/1206 26006KT P6SM FEW250
     FM110700 32008KT P6SM SCT250
     FM111400 36010KT P6SM FEW250
     FM120000 VRB03KT P6SM SKC=



000
FTUS44 KOUN 110520
TAFPNC
TAF
KPNC 110520Z 1106/1206 35005KT P6SM SCT250
     FM111400 01010KT P6SM FEW250
     FM112000 VRB04KT P6SM SKC=



000
FTUS44 KOUN 110520
TAFWWR
TAF
KWWR 110520Z 1106/1206 VRB04KT P6SM BKN250
     FM111200 36009KT P6SM SCT250
     FM111800 VRB05KT P6SM SKC=



000
FTUS44 KOUN 110520
TAFOKC
TAF
KOKC 110520Z 1106/1206 33009KT P6SM SCT250
     FM111400 36012KT P6SM FEW250
     FM120000 VRB03KT P6SM SKC=



000
FTUS44 KOUN 110520
TAFLAW
TAF
KLAW 110520Z 1106/1206 25005KT P6SM SKC
     FM110800 32009KT P6SM FEW250
     FM111400 01012KT P6SM SCT250
     FM112300 VRB04KT P6SM SKC=



000
FTUS44 KOUN 110520
TAFWWR
TAF
KWWR 110520Z 1106/1206 VRB04KT P6SM BKN250
     FM111200 36009KT P6SM SCT250
     FM111800 VRB05KT P6SM SKC=



000
FTUS44 KOUN 110520
TAFGAG
TAF
KGAG 110520Z 1106/1206 VRB04KT P6SM BKN250
     FM111200 36009KT P6SM SCT250
     FM111800 VRB05KT P6SM SKC=



000
FTUS44 KOUN 110520
TAFOUN
TAF
KOUN 110520Z 1106/1206 26006KT P6SM FEW250
     FM110700 32008KT P6SM SCT250
     FM111400 36010KT P6SM FEW250
     FM120000 VRB03KT P6SM SKC=



000
FTUS44 KOUN 110520
TAFPNC
TAF
KPNC 110520Z 1106/1206 35005KT P6SM SCT250
     FM111400 01010KT P6SM FEW250
     FM112000 VRB04KT P6SM SKC=



000
FTUS44 KOUN 110520
TAFLAW
TAF
KLAW 110520Z 1106/1206 25005KT P6SM SKC
     FM110800 32009KT P6SM FEW250
     FM111400 01012KT P6SM SCT250
     FM112300 VRB04KT P6SM SKC=



000
FTUS44 KOUN 110520
TAFSPS
TAF
KSPS 110520Z 1106/1206 24012KT P6SM SKC
     FM111100 36011KT P6SM FEW250
     FM120000 VRB04KT P6SM SKC=



000
FTUS44 KOUN 110520
TAFOKC
TAF
KOKC 110520Z 1106/1206 33009KT P6SM SCT250
     FM111400 36012KT P6SM FEW250
     FM120000 VRB03KT P6SM SKC=



000
FTUS44 KOUN 110520
TAFHBR
TAF
KHBR 110520Z 1106/1206 24010KT P6SM SKC
     FM110700 32010KT P6SM SCT250
     FM111400 36011KT P6SM FEW250
     FM112300 VRB05KT P6SM SKC=



000
FTUS44 KOUN 110520
TAFSPS
TAF
KSPS 110520Z 1106/1206 24012KT P6SM SKC
     FM111100 36011KT P6SM FEW250
     FM120000 VRB04KT P6SM SKC=



000
FTUS44 KOUN 110520
TAFLAW
TAF
KLAW 110520Z 1106/1206 25005KT P6SM SKC
     FM110800 32009KT P6SM FEW250
     FM111400 01012KT P6SM SCT250
     FM112300 VRB04KT P6SM SKC=



000
FTUS44 KOUN 110520
TAFHBR
TAF
KHBR 110520Z 1106/1206 24010KT P6SM SKC
     FM110700 32010KT P6SM SCT250
     FM111400 36011KT P6SM FEW250
     FM112300 VRB05KT P6SM SKC=



000
FTUS44 KOUN 110520
TAFSPS
TAF
KSPS 110520Z 1106/1206 24012KT P6SM SKC
     FM111100 36011KT P6SM FEW250
     FM120000 VRB04KT P6SM SKC=



000
FTUS44 KOUN 110520
TAFHBR
TAF
KHBR 110520Z 1106/1206 24010KT P6SM SKC
     FM110700 32010KT P6SM SCT250
     FM111400 36011KT P6SM FEW250
     FM112300 VRB05KT P6SM SKC=



000
FTUS44 KOUN 102325
TAFHBR
TAF
KHBR 102325Z 1100/1124 24010KT P6SM SKC
     FM110600 35010KT P6SM SCT250
     FM112100 02008KT P6SM SKC=



000
FTUS44 KOUN 102325
TAFLAW
TAF
KLAW 102325Z 1100/1124 23009KT P6SM SKC
     FM110800 01012KT P6SM FEW250=



000
FTUS44 KOUN 102325
TAFOUN
TAF
KOUN 102325Z 1100/1124 24012KT P6SM SKC
     FM110700 35012KT P6SM FEW250
     FM112000 01008KT P6SM FEW250=



000
FTUS44 KOUN 102325
TAFSPS
TAF
KSPS 102325Z 1100/1124 24012KT P6SM SKC
     FM111100 36013KT P6SM FEW250=



000
FTUS44 KOUN 102325
TAFOKC
TAF
KOKC 102325Z 1100/1124 24012KT P6SM SKC
     FM110600 34012KT P6SM FEW250
     FM112000 01008KT P6SM FEW250=



000
FTUS44 KOUN 102325
TAFWWR
TAF
KWWR 102325Z 1100/1124 32008KT P6SM SKC
     FM111800 01007KT P6SM SKC=



000
FTUS44 KOUN 102325
TAFPNC
TAF
KPNC 102325Z 1100/1124 26008KT P6SM SKC
     FM110300 34009KT P6SM SCT250
     FM111800 02009KT P6SM FEW250=



000
FTUS44 KOUN 102325
TAFOKC
TAF
KOKC 102325Z 1100/1124 24012KT P6SM SKC
     FM110600 34012KT P6SM FEW250
     FM112000 01008KT P6SM FEW250=



000
FTUS44 KOUN 102325
TAFOUN
TAF
KOUN 102325Z 1100/1124 24012KT P6SM SKC
     FM110700 35012KT P6SM FEW250
     FM112000 01008KT P6SM FEW250=



000
FTUS44 KOUN 102325
TAFPNC
TAF
KPNC 102325Z 1100/1124 26008KT P6SM SKC
     FM110300 34009KT P6SM SCT250
     FM111800 02009KT P6SM FEW250=



000
FTUS44 KOUN 102325
TAFHBR
TAF
KHBR 102325Z 1100/1124 24010KT P6SM SKC
     FM110600 35010KT P6SM SCT250
     FM112100 02008KT P6SM SKC=



000
FTUS44 KOUN 102325
TAFWWR
TAF
KWWR 102325Z 1100/1124 32008KT P6SM SKC
     FM111800 01007KT P6SM SKC=



000
FTUS44 KOUN 102325
TAFSPS
TAF
KSPS 102325Z 1100/1124 24012KT P6SM SKC
     FM111100 36013KT P6SM FEW250=



000
FTUS44 KOUN 102325
TAFGAG
TAF
KGAG 102325Z 1100/1124 34009KT P6SM SKC
     FM111800 01006KT P6SM SKC=



000
FTUS44 KOUN 102325
TAFOUN
TAF
KOUN 102325Z 1100/1124 24012KT P6SM SKC
     FM110700 35012KT P6SM FEW250
     FM112000 01008KT P6SM FEW250=



000
FTUS44 KOUN 102325
TAFPNC
TAF
KPNC 102325Z 1100/1124 26008KT P6SM SKC
     FM110300 34009KT P6SM SCT250
     FM111800 02009KT P6SM FEW250=



000
FTUS44 KOUN 102325
TAFLAW
TAF
KLAW 102325Z 1100/1124 23009KT P6SM SKC
     FM110800 01012KT P6SM FEW250=



000
FTUS44 KOUN 102325
TAFWWR
TAF
KWWR 102325Z 1100/1124 32008KT P6SM SKC
     FM111800 01007KT P6SM SKC=



000
FTUS44 KOUN 102325
TAFOKC
TAF
KOKC 102325Z 1100/1124 24012KT P6SM SKC
     FM110600 34012KT P6SM FEW250
     FM112000 01008KT P6SM FEW250=



000
FTUS44 KOUN 102325
TAFGAG
TAF
KGAG 102325Z 1100/1124 34009KT P6SM SKC
     FM111800 01006KT P6SM SKC=



000
FTUS44 KOUN 102325
TAFSPS
TAF
KSPS 102325Z 1100/1124 24012KT P6SM SKC
     FM111100 36013KT P6SM FEW250=



000
FTUS44 KOUN 102325
TAFHBR
TAF
KHBR 102325Z 1100/1124 24010KT P6SM SKC
     FM110600 35010KT P6SM SCT250
     FM112100 02008KT P6SM SKC=



000
FTUS44 KOUN 102325
TAFLAW
TAF
KLAW 102325Z 1100/1124 23009KT P6SM SKC
     FM110800 01012KT P6SM FEW250=



000
FTUS44 KOUN 102325
TAFGAG
TAF
KGAG 102325Z 1100/1124 34009KT P6SM SKC
     FM111800 01006KT P6SM SKC=



000
FTUS44 KOUN 101737
TAFSPS
TAF
KSPS 101737Z 1018/1118 22016G22KT P6SM SKC
     FM110000 22012KT P6SM SKC
     FM111100 36013KT P6SM FEW250=



000
FTUS44 KOUN 101737
TAFWWR
TAF
KWWR 101737Z 1018/1118 25015G22KT P6SM SKC
     FM102300 34008KT P6SM SCT250=



000
FTUS44 KOUN 101737
TAFGAG
TAF
KGAG 101737Z 1018/1118 27012G20KT P6SM SKC
     FM102300 35008KT P6SM SCT250=



000
FTUS44 KOUN 101737
TAFOKC
TAF
KOKC 101737Z 1018/1118 22018G27KT P6SM SKC
     FM102300 24009KT P6SM SKC
     FM110600 34012KT P6SM FEW250=



000
FTUS44 KOUN 101737
TAFLAW
TAF
KLAW 101737Z 1018/1118 23013KT P6SM SKC
     FM110000 19007KT P6SM SKC
     FM110800 01015KT P6SM FEW250=



000
FTUS44 KOUN 101737
TAFPNC
TAF
KPNC 101737Z 1018/1118 21012G20KT P6SM SKC
     FM102100 26012G18KT P6SM SKC
     FM110300 36009KT P6SM SCT250=



000
FTUS44 KOUN 101737
TAFOUN
TAF
KOUN 101737Z 1018/1118 22016G24KT P6SM SKC
     FM102300 26008KT P6SM SKC
     FM110700 35010KT P6SM FEW250=



000
FTUS44 KOUN 101737
TAFHBR
TAF
KHBR 101737Z 1018/1118 23015G22KT P6SM SKC
     FM110000 22010KT P6SM SKC
     FM110600 35010KT P6SM SCT250=



000
FTUS44 KOUN 101120
TAFOKC
TAF
KOKC 101120Z 1012/1112 VRB05KT P6SM SKC
     FM101400 20010KT P6SM SKC
     FM101700 22018G27KT P6SM SKC
     FM110100 26009KT P6SM SKC
     FM110600 34010KT P6SM SKC=



000
FTUS44 KOUN 101120
TAFGAG
TAF
KGAG 101120Z 1012/1112 VRB05KT P6SM SKC
     FM101400 24014KT P6SM SKC
     FM110000 30007KT P6SM SKC=



000
FTUS44 KOUN 101120
TAFOUN
TAF
KOUN 101120Z 1012/1112 VRB05KT P6SM SKC
     FM101400 20010KT P6SM SKC
     FM101800 22017G26KT P6SM SKC
     FM110100 26008KT P6SM SKC
     FM110600 34008KT P6SM SKC=



000
FTUS44 KOUN 101120
TAFSPS
TAF
KSPS 101120Z 1012/1112 VRB05KT P6SM SKC
     FM101400 20007KT P6SM SKC
     FM101700 22016G25KT P6SM SKC
     FM110000 21010KT P6SM SKC
     FM111100 34010KT P6SM SKC=



000
FTUS44 KOUN 101120
TAFHBR
TAF
KHBR 101120Z 1012/1112 21012KT P6SM SKC
     FM101600 23017G27KT P6SM SKC
     FM110100 22010KT P6SM SKC
     FM110700 35010KT P6SM SKC=



000
FTUS44 KOUN 101120
TAFLAW
TAF
KLAW 101120Z 1012/1112 VRB05KT P6SM SKC
     FM101500 21008KT P6SM SKC
     FM101800 22014G23KT P6SM SKC
     FM110000 19007KT P6SM SKC
     FM111000 36010KT P6SM SKC=



000
FTUS44 KOUN 101120
TAFPNC
TAF
KPNC 101120Z 1012/1112 16008KT P6SM SKC
     FM101700 21012G20KT P6SM FEW250
     FM110100 35008KT P6SM SKC=



000
FTUS44 KOUN 101120
TAFWWR
TAF
KWWR 101120Z 1012/1112 VRB03KT P6SM SKC
     FM101400 24014KT P6SM SKC
     FM110000 30007KT P6SM SKC=



000
FTUS44 KOUN 100520
TAFOUN
TAF
KOUN 100520Z 1006/1106 VRB05KT P6SM SCT250
     FM101400 18010KT P6SM SKC
     FM101800 22017G26KT P6SM SKC
     FM110100 26008KT P6SM SKC=



000
FTUS44 KOUN 100520
TAFOKC
TAF
KOKC 100520Z 1006/1106 VRB05KT P6SM FEW070 SCT250
     FM101400 18010KT P6SM SKC
     FM101800 22018G27KT P6SM SKC
     FM110100 26009KT P6SM SKC=



000
FTUS44 KOUN 100520
TAFHBR
TAF
KHBR 100520Z 1006/1106 VRB05KT P6SM SKC
     FM101200 19012KT P6SM SKC
     FM101700 23017G27KT P6SM SKC
     FM110100 26012KT P6SM SKC=



000
FTUS44 KOUN 100520
TAFPNC
TAF
KPNC 100520Z 1006/1106 VRB03KT P6SM SCT070 BKN120
     FM101400 18008KT P6SM SCT250
     FM101800 21012G20KT P6SM FEW250
     FM110100 30008KT P6SM SKC=



000
FTUS44 KOUN 100520
TAFWWR
TAF
KWWR 100520Z 1006/1106 VRB03KT P6SM SKC
     FM101400 24014KT P6SM SKC
     FM110000 30007KT P6SM SKC=



000
FTUS44 KOUN 100520
TAFLAW
TAF
KLAW 100520Z 1006/1106 VRB05KT P6SM SKC
     FM101500 18008KT P6SM SKC
     FM101800 22014G23KT P6SM SKC
     FM110000 19007KT P6SM SKC=



000
FTUS44 KOUN 100520
TAFSPS
TAF
KSPS 100520Z 1006/1106 VRB05KT P6SM SKC
     FM101400 18007KT P6SM SKC
     FM101800 22016G25KT P6SM SKC
     FM110000 21010KT P6SM SKC=



000
FTUS44 KOUN 100520
TAFGAG
TAF
KGAG 100520Z 1006/1106 VRB05KT P6SM SKC
     FM101400 24014KT P6SM SKC
     FM110000 30007KT P6SM SKC=



000
FTUS44 KOUN 092320
TAFOUN
TAF
KOUN 092320Z 1000/1024 35014KT P6SM SCT250
     FM100100 VRB05KT P6SM FEW250
     FM101400 18010KT P6SM SKC
     FM101800 22016G25KT P6SM SKC=



000
FTUS44 KOUN 092320
TAFPNC
TAF
KPNC 092320Z 1000/1024 34015G25KT P6SM SCT070 BKN120
     FM100100 01004KT P6SM SCT070 BKN120
     FM100600 VRB03KT P6SM SCT120
     FM101200 18008KT P6SM SCT250
     FM101800 21012G20KT P6SM FEW250=



000
FTUS44 KOUN 092320
TAFOKC
TAF
KOKC 092320Z 1000/1024 36014KT P6SM FEW080 SCT250
     FM100100 VRB05KT P6SM FEW250
     FM101400 18010KT P6SM SKC
     FM101800 22016G25KT P6SM SKC=



000
FTUS44 KOUN 092320
TAFGAG
TAF
KGAG 092320Z 1000/1024 34012KT P6SM FEW250
     FM100100 VRB04KT P6SM SKC
     FM101400 24014KT P6SM SKC=



000
FTUS44 KOUN 092320
TAFHBR
TAF
KHBR 092320Z 1000/1024 03009KT P6SM FEW250
     FM100400 09005KT P6SM SKC
     FM101200 19012KT P6SM SKC
     FM101800 23016G24KT P6SM SKC=



000
FTUS44 KOUN 092320
TAFLAW
TAF
KLAW 092320Z 1000/1024 01014KT P6SM SKC
     FM100100 VRB03KT P6SM SKC
     FM101500 18007KT P6SM SKC
     FM101800 22013KT P6SM SKC=



000
FTUS44 KOUN 092320
TAFWWR
TAF
KWWR 092320Z 1000/1024 35010KT P6SM FEW250
     FM100100 VRB04KT P6SM SKC
     FM101400 24014KT P6SM SKC=



000
FTUS44 KOUN 092320
TAFSPS
TAF
KSPS 092320Z 1000/1024 02011KT P6SM SKC
     FM100100 VRB05KT P6SM SKC
     FM101400 17007KT P6SM SKC
     FM101800 22014G21KT P6SM SKC=



000
FTUS44 KOUN 091734
TAFSPS
TAF
KSPS 091734Z 0918/1018 01013KT P6SM SKC
     FM100000 04005KT P6SM SKC
     FM100600 17007KT P6SM SKC=



000
FTUS44 KOUN 091734
TAFHBR
TAF
KHBR 091734Z 0918/1018 33013G18KT P6SM SKC
     FM092300 03007KT P6SM SKC
     FM101200 19012KT P6SM SKC=



000
FTUS44 KOUN 091734
TAFOUN
TAF
KOUN 091734Z 0918/1018 33015G24KT P6SM FEW120
     FM100000 36005KT P6SM FEW250
     FM101200 18007KT P6SM SKC=



000
FTUS44 KOUN 091734
TAFPNC
TAF
KPNC 091734Z 0918/1018 34015G25KT P6SM SCT070
     FM100000 03007KT P6SM BKN120
     FM100600 13006KT P6SM BKN250
     FM101200 18011KT P6SM SCT250
     FM101600 20010G17KT P6SM FEW250=



000
FTUS44 KOUN 091734
TAFGAG
TAF
KGAG 091734Z 0918/1018 33012G16KT P6SM FEW250
     FM092300 04005KT P6SM SKC
     FM100600 16006KT P6SM SKC
     FM101200 26009KT P6SM SKC=



000
FTUS44 KOUN 091734
TAFLAW
TAF
KLAW 091734Z 0918/1018 36013G17KT P6SM SKC
     FM100000 04005KT P6SM SKC
     FM100600 19007KT P6SM SKC=



000
FTUS44 KOUN 091734
TAFHBR
TAF
KHBR 091734Z 0918/1018 33013G18KT P6SM SKC
     FM092300 03007KT P6SM SKC
     FM101200 19012KT P6SM SKC=



000
FTUS44 KOUN 091734
TAFOUN
TAF
KOUN 091734Z 0918/1018 33015G24KT P6SM FEW120
     FM100000 36005KT P6SM FEW250
     FM101200 18007KT P6SM SKC=



000
FTUS44 KOUN 091734
TAFSPS
TAF
KSPS 091734Z 0918/1018 01013KT P6SM SKC
     FM100000 04005KT P6SM SKC
     FM100600 17007KT P6SM SKC=



000
FTUS44 KOUN 091734
TAFGAG
TAF
KGAG 091734Z 0918/1018 33012G16KT P6SM FEW250
     FM092300 04005KT P6SM SKC
     FM100600 16006KT P6SM SKC
     FM101200 26009KT P6SM SKC=



000
FTUS44 KOUN 091734
TAFWWR
TAF
KWWR 091734Z 0918/1018 33012G16KT P6SM SCT250
     FM092300 05005KT P6SM SKC
     FM100600 15006KT P6SM SKC
     FM101200 25009KT P6SM SKC=



000
FTUS44 KOUN 091734
TAFOKC
TAF
KOKC 091734Z 0918/1018 35014G22KT P6SM FEW120
     FM100000 36005KT P6SM FEW250
     FM101200 18007KT P6SM SKC=



000
FTUS44 KOUN 091734
TAFLAW
TAF
KLAW 091734Z 0918/1018 36013G17KT P6SM SKC
     FM100000 04005KT P6SM SKC
     FM100600 19007KT P6SM SKC=



000
FTUS44 KOUN 091734
TAFOKC
TAF
KOKC 091734Z 0918/1018 35014G22KT P6SM FEW120
     FM100000 36005KT P6SM FEW250
     FM101200 18007KT P6SM SKC=



000
FTUS44 KOUN 091734
TAFPNC
TAF
KPNC 091734Z 0918/1018 34015G25KT P6SM SCT070
     FM100000 03007KT P6SM BKN120
     FM100600 13006KT P6SM BKN250
     FM101200 18011KT P6SM SCT250
     FM101600 20010G17KT P6SM FEW250=



000
FTUS44 KOUN 091734
TAFHBR
TAF
KHBR 091734Z 0918/1018 33013G18KT P6SM SKC
     FM092300 03007KT P6SM SKC
     FM101200 19012KT P6SM SKC=



000
FTUS44 KOUN 091734
TAFGAG
TAF
KGAG 091734Z 0918/1018 33012G16KT P6SM FEW250
     FM092300 04005KT P6SM SKC
     FM100600 16006KT P6SM SKC
     FM101200 26009KT P6SM SKC=



000
FTUS44 KOUN 091734
TAFWWR
TAF
KWWR 091734Z 0918/1018 33012G16KT P6SM SCT250
     FM092300 05005KT P6SM SKC
     FM100600 15006KT P6SM SKC
     FM101200 25009KT P6SM SKC=



000
FTUS44 KOUN 091734
TAFOUN
TAF
KOUN 091734Z 0918/1018 33015G24KT P6SM FEW120
     FM100000 36005KT P6SM FEW250
     FM101200 18007KT P6SM SKC=



000
FTUS44 KOUN 091734
TAFPNC
TAF
KPNC 091734Z 0918/1018 34015G25KT P6SM SCT070
     FM100000 03007KT P6SM BKN120
     FM100600 13006KT P6SM BKN250
     FM101200 18011KT P6SM SCT250
     FM101600 20010G17KT P6SM FEW250=



000
FTUS44 KOUN 091734
TAFOKC
TAF
KOKC 091734Z 0918/1018 35014G22KT P6SM FEW120
     FM100000 36005KT P6SM FEW250
     FM101200 18007KT P6SM SKC=



000
FTUS44 KOUN 091734
TAFLAW
TAF
KLAW 091734Z 0918/1018 36013G17KT P6SM SKC
     FM100000 04005KT P6SM SKC
     FM100600 19007KT P6SM SKC=



000
FTUS44 KOUN 091734
TAFSPS
TAF
KSPS 091734Z 0918/1018 01013KT P6SM SKC
     FM100000 04005KT P6SM SKC
     FM100600 17007KT P6SM SKC=



000
FTUS44 KOUN 091734
TAFWWR
TAF
KWWR 091734Z 0918/1018 33012G16KT P6SM SCT250
     FM092300 05005KT P6SM SKC
     FM100600 15006KT P6SM SKC
     FM101200 25009KT P6SM SKC=



000
FTUS44 KOUN 091120
TAFHBR
TAF
KHBR 091120Z 0912/1012 31010KT P6SM FEW250
     FM091500 33015G25KT P6SM SCT250
     FM100000 VRB04KT P6SM FEW250=



000
FTUS44 KOUN 091120
TAFWWR
TAF
KWWR 091120Z 0912/1012 28008KT P6SM FEW250
     FM091600 33014KT P6SM SCT250
     FM100000 VRB03KT P6SM FEW250=



000
FTUS44 KOUN 091120
TAFGAG
TAF
KGAG 091120Z 0912/1012 28008KT P6SM FEW250
     FM091600 33014KT P6SM SCT060
     FM100000 VRB03KT P6SM FEW250=



000
FTUS44 KOUN 091120
TAFSPS
TAF
KSPS 091120Z 0912/1012 31008KT P6SM SKC
     FM091600 33014KT P6SM SKC
     FM100000 VRB04KT P6SM SKC=



000
FTUS44 KOUN 091120
TAFPNC
TAF
KPNC 091120Z 0912/1012 31010KT P6SM FEW250
     FM091700 34015G25KT P6SM SCT070
     FM100000 35005KT P6SM SCT100
      AMD NOT SKED=



000
FTUS44 KOUN 091120
TAFOUN
TAF
KOUN 091120Z 0912/1012 31007KT P6SM SKC
     FM091500 33015G24KT P6SM SCT070
     FM100000 VRB04KT P6SM FEW250=



000
FTUS44 KOUN 091120
TAFLAW
TAF
KLAW 091120Z 0912/1012 31007KT P6SM SKC
     FM091700 33013KT P6SM FEW250
     FM100000 VRB03KT P6SM SKC=



000
FTUS44 KOUN 091120
TAFSPS
TAF
KSPS 091120Z 0912/1012 31008KT P6SM SKC
     FM091600 33014KT P6SM SKC
     FM100000 VRB04KT P6SM SKC=



000
FTUS44 KOUN 091120
TAFHBR
TAF
KHBR 091120Z 0912/1012 31010KT P6SM FEW250
     FM091500 33015G25KT P6SM SCT250
     FM100000 VRB04KT P6SM FEW250=



000
FTUS44 KOUN 091120
TAFLAW
TAF
KLAW 091120Z 0912/1012 31007KT P6SM SKC
     FM091700 33013KT P6SM FEW250
     FM100000 VRB03KT P6SM SKC=



000
FTUS44 KOUN 091120
TAFOKC
TAF
KOKC 091120Z 0912/1012 32007KT P6SM SKC
     FM091500 33015G24KT P6SM SCT070
     FM100000 VRB04KT P6SM FEW250=



000
FTUS44 KOUN 091120
TAFGAG
TAF
KGAG 091120Z 0912/1012 28008KT P6SM FEW250
     FM091600 33014KT P6SM SCT060
     FM100000 VRB03KT P6SM FEW250=



000
FTUS44 KOUN 091120
TAFPNC
TAF
KPNC 091120Z 0912/1012 31010KT P6SM FEW250
     FM091700 34015G25KT P6SM SCT070
     FM100000 35005KT P6SM SCT100
      AMD NOT SKED=



000
FTUS44 KOUN 091120
TAFOUN
TAF
KOUN 091120Z 0912/1012 31007KT P6SM SKC
     FM091500 33015G24KT P6SM SCT070
     FM100000 VRB04KT P6SM FEW250=



000
FTUS44 KOUN 091120
TAFWWR
TAF
KWWR 091120Z 0912/1012 28008KT P6SM FEW250
     FM091600 33014KT P6SM SCT250
     FM100000 VRB03KT P6SM FEW250=



    US Dept of Commerce
    National Oceanic and Atmospheric Administration
    National Weather Service
    1325 East West Highway
    Silver Spring, MD 20910
    Page Author: NWS Internet Services Team
Disclaimer
Information Quality
Credits
Glossary
Privacy Policy
Freedom of Information Act (FOIA)
About Us
Career Opportunities